Time;durP1;ratioP1;P1;durP2;ratioP2;P2;SDS_P1;SDS_P2;PMS_P1;PMS_P2;Temp;Humidity;BMP_temperature;BMP_pressure;BME280_temperature;BME280_humidity;BME280_pressure;Samples;Min_cycle;Max_cycle;Signal;HPM_P1;HPM_P2
2021/11/01 00:00:06;;;;;;;2.90;2.70;;;;;;;13.82;62.77;94471.84;5059986;28;20735;-83
2021/11/01 00:02:32;;;;;;;3.00;2.70;;;;;;;13.81;62.76;94470.25;5059077;28;20208;-83
2021/11/01 00:05:00;;;;;;;2.60;2.40;;;;;;;13.80;62.99;94466.09;5059673;28;20209;-82
2021/11/01 00:07:27;;;;;;;3.47;2.80;;;;;;;13.84;62.51;94461.28;5058698;28;20327;-83
2021/11/01 00:09:53;;;;;;;2.97;2.73;;;;;;;13.86;62.77;94464.41;5058534;28;20226;-83
2021/11/01 00:12:20;;;;;;;2.97;2.67;;;;;;;13.86;62.58;94461.03;5058165;28;20255;-82
2021/11/01 00:14:46;;;;;;;2.70;2.50;;;;;;;13.89;62.65;94468.34;5059321;28;20201;-81
2021/11/01 00:17:13;;;;;;;2.70;2.50;;;;;;;13.90;62.67;94457.78;5058622;28;20247;-81
2021/11/01 00:19:39;;;;;;;2.50;2.30;;;;;;;13.89;62.41;94458.78;5057489;28;20225;-82
2021/11/01 00:22:07;;;;;;;2.67;2.47;;;;;;;13.91;62.63;94455.97;5059034;28;20209;-82
2021/11/01 00:24:33;;;;;;;2.63;2.43;;;;;;;13.86;62.66;94448.88;5058351;28;20225;-82
2021/11/01 00:27:00;;;;;;;3.53;2.20;;;;;;;13.82;62.18;94442.59;5058101;28;20232;-83
2021/11/01 00:29:26;;;;;;;3.13;2.83;;;;;;;13.82;62.53;94442.59;5058692;28;20225;-83
2021/11/01 00:31:52;;;;;;;2.60;2.40;;;;;;;13.83;62.41;94439.00;5058232;28;20213;-82
2021/11/01 00:34:20;;;;;;;3.23;2.57;;;;;;;13.81;62.55;94439.22;5058422;28;20205;-82
2021/11/01 00:36:46;;;;;;;3.17;2.27;;;;;;;13.79;62.23;94440.44;5057999;28;20292;-83
2021/11/01 00:39:14;;;;;;;2.93;2.50;;;;;;;13.79;62.61;94440.44;5057413;28;20225;-82
2021/11/01 00:41:41;;;;;;;2.70;2.50;;;;;;;13.78;62.49;94429.31;5057756;28;20332;-83
2021/11/01 00:44:08;;;;;;;3.00;2.20;;;;;;;13.80;62.59;94429.09;5057740;28;20347;-81
2021/11/01 00:46:34;;;;;;;2.70;2.50;;;;;;;13.82;62.27;94430.44;5058119;28;20209;-82
2021/11/01 00:49:00;;;;;;;2.40;2.20;;;;;;;13.79;62.62;94430.09;5063964;28;20627;-83
2021/11/01 00:51:27;;;;;;;2.73;2.53;;;;;;;13.76;62.66;94430.53;5057160;28;20206;-83
2021/11/01 00:53:53;;;;;;;2.70;2.50;;;;;;;13.69;63.12;94428.06;5057689;28;20229;-82
2021/11/01 00:56:21;;;;;;;2.87;2.67;;;;;;;13.69;62.92;94425.47;5057553;28;20205;-82
2021/11/01 00:58:48;;;;;;;2.97;2.67;;;;;;;13.66;63.08;94423.31;5057557;28;20221;-82
2021/11/01 01:01:16;;;;;;;2.60;2.40;;;;;;;13.63;63.03;94415.25;5057949;28;20205;-83
2021/11/01 01:03:43;;;;;;;3.17;2.60;;;;;;;13.57;63.13;94418.72;5057494;28;20233;-82
2021/11/01 01:06:10;;;;;;;2.90;2.70;;;;;;;13.48;63.33;94410.50;5057648;28;20205;-82
2021/11/01 01:08:37;;;;;;;3.07;2.77;;;;;;;13.41;63.71;94410.63;5058284;28;20218;-82
2021/11/01 01:11:03;;;;;;;2.77;2.37;;;;;;;13.36;63.84;94415.66;5057728;28;20205;-83
2021/11/01 01:13:36;;;;;;;2.97;2.77;;;;;;;13.29;64.25;94412.38;5058174;28;20194;-81
2021/11/01 01:16:08;;;;;;;3.13;2.83;;;;;;;13.28;64.31;94410.00;5057066;28;20197;-83
2021/11/01 01:18:37;;;;;;;3.17;2.87;;;;;;;13.18;64.63;94405.38;5057820;28;20217;-81
2021/11/01 01:22:11;;;;;;;3.20;2.90;;;;;;;13.03;64.93;94410.16;5057301;28;20228;-82
2021/11/01 01:23:49;;;;;;;3.93;2.90;;;;;;;13.04;64.69;94415.09;5056427;28;20226;-83
2021/11/01 01:26:16;;;;;;;2.90;2.70;;;;;;;13.11;64.85;94422.75;5056619;28;20202;-81
2021/11/01 01:28:44;;;;;;;3.30;3.00;;;;;;;13.11;65.03;94413.19;5057087;28;20746;-83
2021/11/01 01:31:11;;;;;;;2.90;2.70;;;;;;;13.06;64.85;94414.88;5058162;28;20209;-83
2021/11/01 01:33:38;;;;;;;3.20;2.70;;;;;;;13.04;64.87;94412.53;5056238;28;20335;-82
2021/11/01 01:36:05;;;;;;;2.83;2.60;;;;;;;12.94;64.87;94414.81;5055953;28;20233;-80
2021/11/01 01:38:32;;;;;;;4.30;3.30;;;;;;;12.87;65.10;94405.59;5055901;28;20279;-81
2021/11/01 01:40:59;;;;;;;3.00;2.70;;;;;;;12.80;65.57;94405.69;5055357;28;20244;-82
2021/11/01 01:43:25;;;;;;;3.17;2.90;;;;;;;12.70;65.84;94411.34;5055436;28;20235;-82
2021/11/01 01:45:53;;;;;;;2.73;2.53;;;;;;;12.69;65.66;94401.28;5055972;28;20213;-81
2021/11/01 01:48:20;;;;;;;3.00;2.70;;;;;;;12.61;65.90;94399.75;5056312;28;20236;-82
2021/11/01 01:50:46;;;;;;;3.37;3.07;;;;;;;12.58;66.12;94405.38;5061826;28;20212;-81
2021/11/01 01:53:13;;;;;;;3.03;2.70;;;;;;;12.44;66.57;94403.94;5055446;28;20216;-83
2021/11/01 01:55:40;;;;;;;4.63;2.97;;;;;;;12.36;66.55;94406.81;5055749;28;20228;-81
2021/11/01 01:58:10;;;;;;;3.07;2.87;;;;;;;12.28;66.98;94404.53;5056326;28;20197;-83
2021/11/01 02:00:59;;;;;;;3.37;3.07;;;;;;;12.28;67.22;94402.75;5056269;28;20259;-82
2021/11/01 02:03:29;;;;;;;3.33;3.03;;;;;;;12.18;67.01;94401.66;5055892;28;20193;-83
2021/11/01 02:06:03;;;;;;;3.30;3.00;;;;;;;12.06;68.41;94401.59;5055723;28;20201;-81
2021/11/01 02:08:30;;;;;;;3.10;2.80;;;;;;;12.12;67.72;94398.16;5056614;28;20227;-83
2021/11/01 02:11:03;;;;;;;3.83;2.97;;;;;;;12.17;67.77;94387.19;5055879;28;20205;-83
2021/11/01 02:13:37;;;;;;;3.63;2.97;;;;;;;12.07;68.13;94391.06;5056853;28;20580;-82
2021/11/01 02:16:07;;;;;;;3.10;2.80;;;;;;;12.15;67.76;94386.59;5055466;28;20211;-81
2021/11/01 02:18:54;;;;;;;3.40;3.10;;;;;;;12.16;67.90;94391.53;5056446;28;20252;-82
2021/11/01 02:21:40;;;;;;;2.53;2.33;;;;;;;12.06;67.77;94386.13;5056909;28;20201;-80
2021/11/01 02:24:18;;;;;;;4.20;2.73;;;;;;;11.95;68.51;94395.34;5056095;28;20225;-82
2021/11/01 02:26:53;;;;;;;3.43;2.87;;;;;;;11.94;68.14;94390.38;5055266;28;20197;-81
2021/11/01 02:29:26;;;;;;;3.23;2.93;;;;;;;11.90;68.12;94387.47;5056148;28;20224;-81
2021/11/01 02:31:57;;;;;;;3.10;2.80;;;;;;;11.93;68.48;94392.19;5055896;28;20232;-82
2021/11/01 02:34:24;;;;;;;2.80;2.60;;;;;;;11.95;68.13;94384.22;5055411;28;20202;-81
2021/11/01 02:36:52;;;;;;;3.07;2.77;;;;;;;12.00;68.13;94379.22;5055000;28;20272;-83
2021/11/01 02:39:25;;;;;;;3.27;3.07;;;;;;;12.02;68.15;94378.00;5055263;28;20233;-82
2021/11/01 02:41:52;;;;;;;3.30;3.00;;;;;;;12.00;67.81;94382.59;5056293;28;20284;-83
2021/11/01 02:44:22;;;;;;;3.00;2.70;;;;;;;11.88;68.88;94380.94;5058470;28;20229;-83
2021/11/01 02:46:50;;;;;;;2.93;2.67;;;;;;;11.94;68.08;94380.84;5058495;28;20197;-83
2021/11/01 02:49:17;;;;;;;2.97;2.77;;;;;;;11.85;68.36;94374.41;5071757;28;20232;-80
2021/11/01 02:51:50;;;;;;;3.00;2.70;;;;;;;11.87;68.36;94376.78;5070000;28;20220;-81
2021/11/01 02:54:27;;;;;;;4.13;2.97;;;;;;;11.84;68.33;94369.47;5068253;28;20681;-83
2021/11/01 02:57:17;;;;;;;3.50;3.20;;;;;;;11.89;68.46;94361.91;5059231;28;20212;-83
2021/11/01 02:59:44;;;;;;;3.93;2.97;;;;;;;11.87;68.64;94375.00;5061015;28;20227;-82
2021/11/01 03:02:19;;;;;;;3.27;2.73;;;;;;;11.85;68.46;94366.69;5061146;28;20201;-81
2021/11/01 03:04:49;;;;;;;3.73;2.73;;;;;;;11.80;68.36;94368.31;5060986;28;20236;-82
2021/11/01 03:07:19;;;;;;;2.90;2.60;;;;;;;11.82;68.45;94359.38;5060693;28;20205;-83
2021/11/01 03:09:48;;;;;;;3.00;2.67;;;;;;;11.86;68.11;94352.78;5060142;28;20235;-83
2021/11/01 03:12:24;;;;;;;2.93;2.60;;;;;;;11.89;68.56;94349.78;5060880;28;20232;-83
2021/11/01 03:15:02;;;;;;;3.57;3.00;;;;;;;11.90;68.48;94348.78;5060138;28;20236;-80
2021/11/01 03:17:35;;;;;;;3.07;2.87;;;;;;;11.90;68.54;94343.63;5060218;28;20201;-82
2021/11/01 03:20:07;;;;;;;3.00;2.70;;;;;;;11.94;67.96;94338.81;5060039;28;20217;-82
2021/11/01 03:22:41;;;;;;;2.87;2.67;;;;;;;11.89;68.14;94334.31;5060315;28;20205;-83
2021/11/01 03:25:18;;;;;;;3.17;2.70;;;;;;;11.91;68.32;94339.25;5060032;28;20223;-82
2021/11/01 03:27:52;;;;;;;2.90;2.67;;;;;;;11.96;68.02;94340.16;5059882;28;20213;-83
2021/11/01 03:30:22;;;;;;;3.30;2.83;;;;;;;11.85;68.31;94333.16;5060513;28;20216;-81
2021/11/01 03:32:49;;;;;;;3.07;2.60;;;;;;;11.86;68.57;94334.72;5060280;28;20205;-82
2021/11/01 03:35:18;;;;;;;2.50;2.30;;;;;;;11.95;68.29;94327.47;5060505;28;20197;-83
2021/11/01 03:37:46;;;;;;;4.67;2.60;;;;;;;11.99;67.89;94331.22;5059457;28;20197;-81
2021/11/01 03:40:19;;;;;;;2.50;2.30;;;;;;;12.02;68.02;94320.47;5059734;28;20222;-82
2021/11/01 03:42:51;;;;;;;2.37;2.17;;;;;;;12.05;67.46;94320.03;5060500;28;20201;-81
2021/11/01 03:45:18;;;;;;;2.27;2.07;;;;;;;12.11;66.98;94324.34;5059064;28;20229;-83
2021/11/01 03:47:53;;;;;;;2.20;2.00;;;;;;;12.18;66.63;94326.81;5059671;28;20201;-83
2021/11/01 03:50:29;;;;;;;2.30;2.10;;;;;;;12.26;66.19;94323.97;5072935;28;20247;-81
2021/11/01 03:53:01;;;;;;;2.13;1.93;;;;;;;12.23;65.87;94321.81;5059727;28;20211;-82
2021/11/01 03:55:29;;;;;;;2.10;2.00;;;;;;;12.19;65.96;94315.50;5060125;28;20244;-82
2021/11/01 03:58:05;;;;;;;2.50;2.30;;;;;;;12.19;65.86;94310.34;5059794;28;20209;-81
2021/11/01 04:00:42;;;;;;;2.57;2.30;;;;;;;12.17;65.67;94304.59;5060439;28;20216;-82
2021/11/01 04:06:00;;;;;;;2.83;2.60;;;;;;;12.21;65.63;94303.19;5049982;28;20308;-82
2021/11/01 04:08:27;;;;;;;2.30;2.10;;;;;;;12.24;65.64;94298.38;5060047;28;20293;-81
2021/11/01 04:10:54;;;;;;;2.73;2.50;;;;;;;12.18;65.25;94306.97;5059886;28;20260;-83
2021/11/01 04:13:23;;;;;;;2.50;2.30;;;;;;;12.20;65.42;94307.56;5060747;28;20209;-81
2021/11/01 04:15:58;;;;;;;2.30;2.13;;;;;;;12.20;65.10;94306.75;5060326;28;20309;-82
2021/11/01 04:18:30;;;;;;;2.47;2.27;;;;;;;12.21;65.01;94303.97;5059216;28;20225;-82
2021/11/01 04:20:57;;;;;;;2.60;2.40;;;;;;;12.21;64.83;94303.97;5059286;28;20255;-81
2021/11/01 04:23:32;;;;;;;2.50;2.30;;;;;;;12.20;64.47;94304.97;5058502;28;20202;-82
2021/11/01 04:26:14;;;;;;;2.40;2.20;;;;;;;12.26;64.37;94305.91;5059057;28;20224;-82
2021/11/01 04:28:46;;;;;;;2.97;2.67;;;;;;;12.25;65.20;94306.91;5058348;28;20358;-82
2021/11/01 04:31:16;;;;;;;2.40;2.20;;;;;;;12.31;64.88;94309.41;5059309;28;20712;-82
2021/11/01 04:33:43;;;;;;;2.53;2.33;;;;;;;12.34;64.94;94316.69;5058465;28;20572;-81
2021/11/01 04:36:11;;;;;;;2.70;2.50;;;;;;;12.37;64.66;94315.47;5058254;28;20198;-83
2021/11/01 04:41:28;;;;;;;2.97;2.50;;;;;;;12.34;64.47;94313.31;5056434;28;20217;-82
2021/11/01 04:55:01;;;;;;;2.90;2.70;;;;;;;12.20;64.32;94315.28;5058624;28;20213;-82
2021/11/01 04:57:37;;;;;;;5.30;3.03;;;;;;;12.19;64.56;94312.94;5058288;28;20268;-83
2021/11/01 05:00:09;;;;;;;2.93;2.60;;;;;;;12.07;65.24;94320.63;5058582;28;20699;-83
2021/11/01 05:02:42;;;;;;;3.40;2.60;;;;;;;12.04;64.80;94319.25;5057895;28;20284;-82
2021/11/01 05:05:09;;;;;;;2.73;2.37;;;;;;;12.07;64.83;94321.41;5057702;28;20244;-82
2021/11/01 05:07:38;;;;;;;2.70;2.50;;;;;;;11.96;65.07;94324.69;5057332;28;20206;-82
2021/11/01 05:10:12;;;;;;;2.93;2.50;;;;;;;11.94;65.34;94323.31;5057335;28;20218;-81
2021/11/01 05:12:40;;;;;;;3.30;2.70;;;;;;;11.93;65.46;94314.81;5057074;28;20239;-82
2021/11/01 05:15:25;;;;;;;2.83;2.60;;;;;;;11.85;65.41;94325.41;5057909;28;20297;-82
2021/11/01 05:17:56;;;;;;;2.77;2.53;;;;;;;11.68;65.99;94330.31;5057180;28;20197;-81
2021/11/01 05:23:17;;;;;;;2.90;2.70;;;;;;;11.71;65.71;94331.69;5056835;28;20209;-81
2021/11/01 05:25:50;;;;;;;4.23;2.70;;;;;;;11.52;66.03;94333.47;5057099;28;20217;-83
2021/11/01 05:28:25;;;;;;;3.00;2.73;;;;;;;11.49;66.61;94336.47;5057404;28;20217;-82
2021/11/01 05:31:00;;;;;;;2.93;2.40;;;;;;;11.50;66.97;94340.63;5057142;28;20211;-81
2021/11/01 05:36:26;;;;;;;3.00;2.70;;;;;;;11.57;66.53;94335.38;4994777;28;20203;-82
2021/11/01 05:41:38;;;;;;;2.80;2.50;;;;;;;11.69;65.91;94344.81;5055099;28;20587;-82
2021/11/01 05:44:08;;;;;;;2.40;2.20;;;;;;;11.73;65.30;94337.44;5055948;28;20205;-82
2021/11/01 05:46:44;;;;;;;2.60;2.37;;;;;;;11.79;65.40;94353.84;5056386;28;20221;-83
2021/11/01 05:49:12;;;;;;;3.43;2.40;;;;;;;11.82;65.48;94351.63;5046509;28;20312;-83
2021/11/01 05:51:42;;;;;;;2.70;2.50;;;;;;;11.83;65.08;94352.41;5082997;28;20200;-83
2021/11/01 05:54:11;;;;;;;2.80;2.20;;;;;;;11.86;64.97;94350.22;5074805;28;20204;-82
2021/11/01 05:56:46;;;;;;;2.87;2.40;;;;;;;11.89;64.90;94357.53;5075930;28;20196;-82
2021/11/01 06:04:50;;;;;;;2.30;2.07;;;;;;;12.05;64.24;94364.69;5038975;28;20236;-83
2021/11/01 06:07:25;;;;;;;2.27;2.07;;;;;;;12.08;63.90;94366.06;5037326;28;20221;-82
2021/11/01 06:09:58;;;;;;;2.90;2.00;;;;;;;12.12;64.12;94367.19;5035351;28;20217;-82
2021/11/01 06:15:09;;;;;;;2.20;2.00;;;;;;;12.14;63.42;94375.50;5035952;28;20230;-81
2021/11/01 06:17:37;;;;;;;2.20;2.00;;;;;;;12.22;63.39;94374.41;5034571;28;20198;-83
2021/11/01 06:20:05;;;;;;;2.07;1.87;;;;;;;12.27;63.73;94377.94;5035771;28;20329;-82
2021/11/01 06:22:32;;;;;;;2.47;1.87;;;;;;;12.34;63.59;94375.25;5036064;28;20259;-82
2021/11/01 06:25:02;;;;;;;3.50;2.33;;;;;;;12.36;63.99;94393.91;5035327;28;20593;-81
2021/11/01 06:27:29;;;;;;;1.90;1.80;;;;;;;12.38;64.19;94404.81;5035474;28;20820;-83
2021/11/01 06:30:10;;;;;;;2.27;2.07;;;;;;;12.33;64.29;94402.88;5035170;28;20229;-83
2021/11/01 06:32:41;;;;;;;2.33;2.13;;;;;;;12.37;64.09;94410.97;5035544;28;20202;-83
2021/11/01 06:43:26;;;;;;;2.33;2.00;;;;;;;12.84;62.94;94440.41;5048524;28;20201;-82
2021/11/01 06:51:34;;;;;;;3.17;2.80;;;;;;;12.53;64.32;94487.03;5064917;28;20203;-82
2021/11/01 06:54:34;;;;;;;3.90;2.90;;;;;;;12.48;65.17;94485.13;5058116;28;20236;-83
2021/11/01 06:57:14;;;;;;;2.90;2.70;;;;;;;12.45;65.35;94490.72;5056884;28;20586;-82
2021/11/01 07:16:24;;;;;;;3.80;3.50;;;;;;;12.37;68.30;94540.03;5057101;28;20272;-83
2021/11/01 07:18:55;;;;;;;4.03;3.63;;;;;;;12.42;68.18;94543.56;5057928;28;20636;-81
2021/11/01 07:21:47;;;;;;;3.50;3.20;;;;;;;12.49;68.38;94543.50;5057833;28;20327;-82
2021/11/01 07:24:35;;;;;;;4.37;3.97;;;;;;;12.58;68.94;94546.56;5057230;28;20260;-83
2021/11/01 07:38:47;;;;;;;3.97;3.43;;;;;;;12.63;70.95;94563.03;5132578;28;20283;-84
2021/11/01 08:22:46;;;;;;;4.40;4.00;;;;;;;13.13;78.14;94568.81;5033395;28;20197;-83
2021/11/01 08:28:24;;;;;;;4.13;3.83;;;;;;;13.16;77.38;94580.56;5033040;28;20278;-83
2021/11/01 09:01:30;;;;;;;4.87;4.47;;;;;;;13.43;76.97;94612.84;5018281;28;20755;-83
2021/11/01 09:04:05;;;;;;;4.77;4.37;;;;;;;13.44;76.92;94617.03;5018194;28;20213;-83
2021/11/01 09:20:42;;;;;;;6.57;4.30;;;;;;;13.27;77.52;94621.22;5017106;28;20685;-83
2021/11/01 09:23:26;;;;;;;4.60;4.20;;;;;;;13.23;77.46;94632.97;5017568;28;20203;-84
2021/11/01 09:26:01;;;;;;;6.20;4.60;;;;;;;13.20;77.12;94632.59;5017657;28;20209;-83
2021/11/01 09:28:33;;;;;;;4.10;3.70;;;;;;;13.25;76.69;94625.78;5017098;28;20226;-84
2021/11/01 09:36:27;;;;;;;4.50;3.63;;;;;;;13.25;75.71;94643.88;5017550;28;20242;-84
2021/11/01 09:39:05;;;;;;;4.87;3.00;;;;;;;13.13;74.93;94642.97;5017330;28;20229;-84
2021/11/01 09:41:32;;;;;;;3.40;3.10;;;;;;;13.06;74.47;94645.66;5022849;28;20200;-84
2021/11/01 09:44:04;;;;;;;3.20;2.90;;;;;;;13.11;74.26;94653.53;5036566;28;20203;-82
2021/11/01 09:46:31;;;;;;;3.37;2.83;;;;;;;13.16;73.98;94655.50;5031461;28;20670;-83
2021/11/01 09:49:13;;;;;;;3.20;2.90;;;;;;;13.17;73.43;94657.09;5037761;28;20236;-83
2021/11/01 09:51:40;;;;;;;3.70;2.70;;;;;;;13.19;73.18;94662.03;5031259;28;20221;-81
2021/11/01 09:54:18;;;;;;;4.17;3.10;;;;;;;13.19;73.31;94665.41;5050513;28;20220;-83
2021/11/01 09:56:47;;;;;;;3.53;2.83;;;;;;;13.16;73.83;94665.06;5054790;28;20687;-82
2021/11/01 09:59:15;;;;;;;3.77;3.40;;;;;;;13.17;74.41;94661.47;5051069;28;20260;-83
2021/11/01 10:01:43;;;;;;;3.53;2.80;;;;;;;13.14;74.83;94668.63;5050811;28;20763;-84
2021/11/01 10:04:15;;;;;;;3.83;3.47;;;;;;;13.14;74.90;94660.06;5051190;28;20204;-82
2021/11/01 10:06:41;;;;;;;3.60;3.00;;;;;;;13.09;76.68;94665.88;5050803;28;20201;-83
2021/11/01 10:09:29;;;;;;;4.37;2.97;;;;;;;13.08;76.62;94668.69;5051459;28;20222;-83
2021/11/01 10:11:56;;;;;;;3.80;2.97;;;;;;;13.02;76.55;94664.38;5055197;28;20755;-83
2021/11/01 10:14:27;;;;;;;4.33;3.10;;;;;;;13.01;76.95;94671.34;5051492;28;20206;-83
2021/11/01 10:19:44;;;;;;;4.93;2.97;;;;;;;13.01;77.22;94663.59;5051065;28;20307;-82
2021/11/01 10:22:23;;;;;;;3.00;2.60;;;;;;;12.97;78.45;94669.38;5050641;28;20326;-83
2021/11/01 10:24:57;;;;;;;3.47;3.03;;;;;;;13.01;78.63;94671.34;5050837;28;20201;-82
2021/11/01 10:27:29;;;;;;;5.43;3.00;;;;;;;13.01;78.69;94680.88;5050363;28;20236;-82
2021/11/01 10:30:14;;;;;;;3.70;3.10;;;;;;;13.04;78.13;94688.22;5050565;28;20425;-83
2021/11/01 10:35:55;;;;;;;3.40;2.97;;;;;;;13.00;79.62;94679.28;5039982;28;20213;-83
2021/11/01 10:38:31;;;;;;;3.77;3.07;;;;;;;12.99;79.13;94675.91;5050643;28;20715;-83
2021/11/01 10:41:04;;;;;;;3.20;2.90;;;;;;;12.98;79.97;94671.75;5050846;28;20208;-82
2021/11/01 10:43:44;;;;;;;5.83;5.23;;;;;;;13.01;80.41;94671.34;5051290;28;20617;-82
2021/11/01 11:11:45;;;;;;;2.57;2.37;;;;;;;12.71;83.60;94652.31;5050075;28;20887;-83
2021/11/01 11:14:27;;;;;;;2.03;1.83;;;;;;;12.70;84.01;94653.34;5049870;28;20842;-83
2021/11/01 11:22:39;;;;;;;3.50;1.80;;;;;;;12.69;84.70;94646.59;5043829;28;20190;-83
2021/11/01 11:25:20;;;;;;;3.10;1.50;;;;;;;12.67;84.37;94640.84;5049619;28;20637;-83
2021/11/01 11:28:03;;;;;;;1.87;1.70;;;;;;;12.68;84.06;94639.84;5049310;28;20300;-83
2021/11/01 11:30:59;;;;;;;1.97;1.53;;;;;;;12.62;85.45;94641.50;5049508;28;20203;-83
2021/11/01 11:33:50;;;;;;;1.93;1.67;;;;;;;12.73;83.88;94633.03;5049485;28;20284;-83
2021/11/01 11:48:18;;;;;;;2.30;2.00;;;;;;;12.83;84.43;94621.44;5049094;28;20854;-83
2021/11/01 11:50:49;;;;;;;2.03;1.60;;;;;;;12.77;85.15;94612.75;5042803;28;20225;-82
2021/11/01 11:53:25;;;;;;;1.63;1.50;;;;;;;12.80;83.61;94614.91;5049164;28;20301;-82
2021/11/01 11:56:06;;;;;;;1.70;1.53;;;;;;;12.73;84.32;94614.16;5049190;28;20805;-83
2021/11/01 11:58:37;;;;;;;1.20;1.10;;;;;;;12.67;82.51;94615.03;5048977;28;20213;-82
2021/11/01 12:01:23;;;;;;;1.20;1.10;;;;;;;12.70;82.45;94617.19;5049203;28;20198;-82
2021/11/01 12:03:55;;;;;;;1.47;1.20;;;;;;;12.65;83.04;94614.47;5049181;28;20205;-83
2021/11/01 12:06:25;;;;;;;0.90;0.90;;;;;;;12.66;81.99;94610.88;5048868;28;20206;-83
2021/11/01 12:09:09;;;;;;;1.70;1.27;;;;;;;12.63;81.58;94606.13;5049037;28;20241;-82
2021/11/01 12:12:01;;;;;;;1.87;1.10;;;;;;;12.66;81.35;94597.97;5048982;28;20257;-83
2021/11/01 12:17:02;;;;;;;1.83;1.10;;;;;;;12.69;81.01;94605.28;5049031;28;20287;-83
2021/11/01 12:17:29;;;;;;;1.07;0.97;;;;;;;12.64;79.92;94599.97;5048383;28;20237;-83
2021/11/01 12:20:09;;;;;;;3.27;1.13;;;;;;;12.62;79.48;94592.44;5052589;28;20592;-83
2021/11/01 12:22:43;;;;;;;1.47;1.10;;;;;;;12.69;79.42;94598.31;5053135;28;20228;-82
2021/11/01 12:25:22;;;;;;;2.10;0.93;;;;;;;12.73;79.43;94596.88;5052503;28;20817;-82
2021/11/01 12:30:46;;;;;;;2.23;1.00;;;;;;;12.75;80.11;94597.44;5050697;28;20284;-82
2021/11/01 12:33:20;;;;;;;1.20;1.10;;;;;;;12.74;79.73;94601.03;5051918;28;20260;-83
2021/11/01 12:35:54;;;;;;;1.13;1.00;;;;;;;12.68;81.15;94604.50;5052626;28;20209;-83
2021/11/01 12:38:41;;;;;;;1.77;1.13;;;;;;;12.66;80.04;94603.91;5051699;28;20320;-83
2021/11/01 12:41:41;;;;;;;1.67;1.30;;;;;;;12.66;80.21;94595.38;5049709;28;20201;-83
2021/11/01 12:56:57;;;;;;;2.77;1.63;;;;;;;13.35;82.94;94589.88;5046040;28;20244;-83
2021/11/01 12:58:30;;;;;;;1.77;1.13;;;;;;;13.44;78.06;94582.63;5050977;28;20232;-84
2021/11/01 13:01:09;;;;;;;1.40;1.30;;;;;;;13.24;79.53;94587.25;5045708;28;20731;-82
2021/11/01 13:03:42;;;;;;;1.50;1.23;;;;;;;13.11;80.17;94582.97;5049384;28;20224;-83
2021/11/01 13:06:18;;;;;;;2.23;1.50;;;;;;;13.07;80.90;94582.63;5052109;28;20197;-82
2021/11/01 13:09:01;;;;;;;41.20;36.17;;;;;;;12.93;82.05;94582.97;5051441;28;20347;-84
2021/11/01 13:11:57;;;;;;;9.47;7.37;;;;;;;12.80;84.10;94582.13;5051548;28;20296;-84
2021/11/01 13:21:34;;;;;;;1.80;1.70;;;;;;;12.69;83.16;94576.88;5013231;28;20701;-83
2021/11/01 13:24:25;;;;;;;2.90;1.90;;;;;;;12.71;83.99;94570.47;5037811;28;20240;-82
2021/11/01 13:36:32;;;;;;;2.80;1.93;;;;;;;12.74;86.47;94574.41;5021561;28;20217;-79
2021/11/01 13:39:05;;;;;;;12.03;2.03;;;;;;;12.83;84.35;94573.16;5051845;28;20229;-79
2021/11/01 13:41:32;;;;;;;5.90;2.00;;;;;;;13.03;85.06;94565.19;5052470;28;20190;-78
2021/11/01 13:44:14;;;;;;;3.97;1.60;;;;;;;13.25;82.79;94553.41;5051974;28;20556;-79
2021/11/01 13:47:00;;;;;;;1.80;1.30;;;;;;;13.38;80.54;94557.63;5051939;28;20272;-82
2021/11/01 13:49:35;;;;;;;3.10;1.43;;;;;;;13.25;79.39;94560.38;5039683;28;20308;-82
2021/11/01 13:52:34;;;;;;;1.50;1.40;;;;;;;13.12;80.05;94569.81;5032071;28;20221;-82
2021/11/01 13:58:35;;;;;;;1.50;1.40;;;;;;;12.92;81.22;94571.06;4998297;28;20207;-81
2021/11/01 14:12:16;;;;;;;2.90;1.87;;;;;;;12.62;86.21;94565.81;4953194;28;20204;-82
2021/11/01 14:28:00;;;;;;;1.77;1.60;;;;;;;12.31;87.56;94554.59;5030860;28;20205;-81
2021/11/01 14:31:39;;;;;;;1.60;1.50;;;;;;;12.18;87.32;94552.09;5030674;28;20230;-81
2021/11/01 16:17:59;;;;;;;1.20;1.10;;;;;;;11.02;81.23;94543.88;4955024;29;20252;-80
2021/11/01 16:24:14;;;;;;;2.70;1.20;;;;;;;10.96;82.14;94542.91;4864608;29;20219;-80
2021/11/01 16:26:51;;;;;;;1.20;1.10;;;;;;;10.98;82.94;94546.06;4911233;29;20239;-80
2021/11/01 16:29:40;;;;;;;1.70;1.60;;;;;;;10.99;82.84;94545.06;4953912;29;20224;-80
2021/11/01 16:32:32;;;;;;;1.50;1.40;;;;;;;10.98;83.17;94547.84;4953593;29;20308;-81
2021/11/01 16:35:33;;;;;;;1.83;1.43;;;;;;;10.93;83.22;94551.06;4971927;28;20294;-81
2021/11/01 16:38:09;;;;;;;1.70;1.40;;;;;;;10.91;83.86;94547.88;4973588;28;20208;-81
2021/11/01 16:41:11;;;;;;;1.40;1.30;;;;;;;10.95;83.47;94559.38;4974120;28;20200;-81
2021/11/01 16:44:11;;;;;;;1.43;1.30;;;;;;;10.86;84.08;94567.50;4972358;28;20203;-81
2021/11/01 16:47:31;;;;;;;1.63;1.53;;;;;;;10.74;85.32;94562.19;4966061;28;20255;-80
2021/11/01 16:50:47;;;;;;;1.50;1.40;;;;;;;10.70;84.57;94566.16;4965453;28;20231;-80
2021/11/01 16:57:17;;;;;;;1.57;1.40;;;;;;;10.73;84.74;94571.72;4935913;29;20264;-81
2021/11/01 17:00:27;;;;;;;1.37;1.27;;;;;;;10.80;84.53;94568.31;4953687;29;20704;-81
2021/11/01 17:03:49;;;;;;;7.03;5.87;;;;;;;10.72;85.08;94570.13;4952645;28;20308;-81
2021/11/01 17:26:37;;;;;;;1.10;1.00;;;;;;;10.47;83.44;94571.75;4891743;29;20796;-80
2021/11/01 18:41:09;;;;;;;1.40;1.30;;;;;;;10.58;82.15;94558.25;4972069;28;20208;-82
2021/11/01 18:53:57;;;;;;;1.57;1.20;;;;;;;10.49;82.59;94569.78;4952852;29;20227;-81
2021/11/01 18:57:04;;;;;;;1.20;1.10;;;;;;;10.53;83.34;94568.38;4953109;28;20568;-80
2021/11/01 19:06:54;;;;;;;1.87;1.30;;;;;;;10.48;84.00;94562.25;4969281;28;20683;-81
2021/11/01 19:10:15;;;;;;;2.17;1.03;;;;;;;10.46;84.30;94559.88;4970828;28;20722;-81
2021/11/01 20:03:38;;;;;;;1.23;1.00;;;;;;;10.19;85.84;94491.47;4910092;28;20298;-81
2021/11/01 21:38:41;;;;;;;3.50;2.67;;;;;;;10.38;84.82;94416.03;4938903;28;20296;-81
2021/11/01 21:42:00;;;;;;;1.33;1.23;;;;;;;10.29;84.37;94412.88;4972837;28;20299;-80
2021/11/01 21:49:03;;;;;;;2.17;1.67;;;;;;;10.31;84.39;94415.25;4822403;29;20269;-81
2021/11/01 21:55:40;;;;;;;2.10;1.40;;;;;;;10.38;83.97;94411.66;4797964;29;20268;-80
2021/11/01 22:18:53;;;;;;;1.40;1.23;;;;;;;10.34;84.70;94386.53;4839148;29;20211;-80
2021/11/01 22:25:42;;;;;;;1.60;1.50;;;;;;;10.29;84.00;94382.00;4870875;29;20687;-81
2021/11/01 22:47:41;;;;;;;1.17;1.10;;;;;;;10.26;82.76;94372.13;4867786;29;20231;-81
2021/11/01 23:03:48;;;;;;;3.47;1.10;;;;;;;10.18;82.89;94359.47;4846913;29;20295;-81
2021/11/01 23:31:36;;;;;;;0.90;0.80;;;;;;;10.05;83.84;94355.16;4932401;29;20260;-80
2021/11/01 23:35:04;;;;;;;1.50;0.77;;;;;;;10.10;83.74;94346.84;4877365;29;20697;-81
2021/11/01 23:51:03;;;;;;;0.60;0.60;;;;;;;10.09;83.17;94347.81;4872293;29;20923;-81
